sensor_id;sensor_type;location;lat;lon;timestamp;P1;durP1;ratioP1;P2;durP2;ratioP2
4724;SDS011;2376;53.544;10.226;2022-08-21T00:00:21;8.17;;;3.40;;
4724;SDS011;2376;53.544;10.226;2022-08-21T00:02:51;4.43;;;2.83;;
4724;SDS011;2376;53.544;10.226;2022-08-21T00:05:20;5.47;;;3.60;;
4724;SDS011;2376;53.544;10.226;2022-08-21T00:07:48;4.93;;;3.17;;
4724;SDS011;2376;53.544;10.226;2022-08-21T00:10:16;6.47;;;2.80;;
4724;SDS011;2376;53.544;10.226;2022-08-21T00:12:44;6.63;;;3.37;;
4724;SDS011;2376;53.544;10.226;2022-08-21T00:15:12;7.20;;;3.07;;
4724;SDS011;2376;53.544;10.226;2022-08-21T00:17:40;4.00;;;2.83;;
4724;SDS011;2376;53.544;10.226;2022-08-21T00:20:07;3.30;;;3.10;;
4724;SDS011;2376;53.544;10.226;2022-08-21T00:22:36;3.70;;;3.40;;
4724;SDS011;2376;53.544;10.226;2022-08-21T00:25:03;6.97;;;3.30;;
4724;SDS011;2376;53.544;10.226;2022-08-21T00:27:32;4.50;;;3.30;;
4724;SDS011;2376;53.544;10.226;2022-08-21T00:29:59;4.37;;;2.93;;
4724;SDS011;2376;53.544;10.226;2022-08-21T00:32:27;4.20;;;3.43;;
4724;SDS011;2376;53.544;10.226;2022-08-21T00:34:54;3.30;;;3.00;;
4724;SDS011;2376;53.544;10.226;2022-08-21T00:37:21;3.60;;;2.80;;
4724;SDS011;2376;53.544;10.226;2022-08-21T00:39:48;2.97;;;2.77;;
4724;SDS011;2376;53.544;10.226;2022-08-21T00:42:15;2.73;;;2.50;;
4724;SDS011;2376;53.544;10.226;2022-08-21T00:44:44;4.33;;;3.10;;
4724;SDS011;2376;53.544;10.226;2022-08-21T00:47:11;3.40;;;2.90;;
4724;SDS011;2376;53.544;10.226;2022-08-21T00:49:39;3.47;;;3.10;;
4724;SDS011;2376;53.544;10.226;2022-08-21T00:52:07;3.40;;;3.10;;
4724;SDS011;2376;53.544;10.226;2022-08-21T00:54:36;3.63;;;2.80;;
4724;SDS011;2376;53.544;10.226;2022-08-21T00:57:07;3.03;;;2.80;;
4724;SDS011;2376;53.544;10.226;2022-08-21T00:59:37;3.40;;;3.10;;
4724;SDS011;2376;53.544;10.226;2022-08-21T01:02:08;3.80;;;3.50;;
4724;SDS011;2376;53.544;10.226;2022-08-21T01:04:35;3.47;;;3.10;;
4724;SDS011;2376;53.544;10.226;2022-08-21T01:07:02;5.33;;;3.20;;
4724;SDS011;2376;53.544;10.226;2022-08-21T01:09:29;4.73;;;3.20;;
4724;SDS011;2376;53.544;10.226;2022-08-21T01:11:56;3.40;;;3.20;;
4724;SDS011;2376;53.544;10.226;2022-08-21T01:14:23;3.60;;;2.90;;
4724;SDS011;2376;53.544;10.226;2022-08-21T01:16:51;3.87;;;3.47;;
4724;SDS011;2376;53.544;10.226;2022-08-21T01:19:20;5.80;;;3.67;;
4724;SDS011;2376;53.544;10.226;2022-08-21T01:21:49;3.97;;;3.47;;
4724;SDS011;2376;53.544;10.226;2022-08-21T01:24:15;3.90;;;3.50;;
4724;SDS011;2376;53.544;10.226;2022-08-21T01:26:43;4.23;;;3.83;;
4724;SDS011;2376;53.544;10.226;2022-08-21T01:29:12;4.23;;;3.83;;
4724;SDS011;2376;53.544;10.226;2022-08-21T01:31:42;5.50;;;3.70;;
4724;SDS011;2376;53.544;10.226;2022-08-21T01:34:09;4.57;;;4.20;;
4724;SDS011;2376;53.544;10.226;2022-08-21T01:36:36;3.70;;;3.40;;
4724;SDS011;2376;53.544;10.226;2022-08-21T01:39:05;3.43;;;3.13;;
4724;SDS011;2376;53.544;10.226;2022-08-21T01:41:32;7.03;;;4.20;;
4724;SDS011;2376;53.544;10.226;2022-08-21T01:43:58;4.77;;;3.77;;
4724;SDS011;2376;53.544;10.226;2022-08-21T01:46:25;7.10;;;5.37;;
4724;SDS011;2376;53.544;10.226;2022-08-21T01:48:52;4.73;;;3.97;;
4724;SDS011;2376;53.544;10.226;2022-08-21T01:51:19;6.00;;;3.83;;
4724;SDS011;2376;53.544;10.226;2022-08-21T01:53:46;3.90;;;3.60;;
4724;SDS011;2376;53.544;10.226;2022-08-21T01:56:15;5.77;;;3.60;;
4724;SDS011;2376;53.544;10.226;2022-08-21T01:58:42;4.13;;;3.77;;
4724;SDS011;2376;53.544;10.226;2022-08-21T02:01:10;5.00;;;4.57;;
4724;SDS011;2376;53.544;10.226;2022-08-21T02:03:37;6.50;;;4.40;;
4724;SDS011;2376;53.544;10.226;2022-08-21T02:06:06;5.03;;;3.90;;
4724;SDS011;2376;53.544;10.226;2022-08-21T02:08:38;4.67;;;3.37;;
4724;SDS011;2376;53.544;10.226;2022-08-21T02:11:05;4.03;;;3.50;;
4724;SDS011;2376;53.544;10.226;2022-08-21T02:13:33;4.87;;;4.13;;
4724;SDS011;2376;53.544;10.226;2022-08-21T02:16:00;3.67;;;3.37;;
4724;SDS011;2376;53.544;10.226;2022-08-21T02:18:26;6.90;;;4.33;;
4724;SDS011;2376;53.544;10.226;2022-08-21T02:20:54;5.10;;;4.70;;
4724;SDS011;2376;53.544;10.226;2022-08-21T02:23:21;4.47;;;4.07;;
4724;SDS011;2376;53.544;10.226;2022-08-21T02:25:48;5.10;;;4.60;;
4724;SDS011;2376;53.544;10.226;2022-08-21T02:28:15;6.17;;;4.27;;
4724;SDS011;2376;53.544;10.226;2022-08-21T02:30:44;4.27;;;3.93;;
4724;SDS011;2376;53.544;10.226;2022-08-21T02:33:13;5.30;;;4.30;;
4724;SDS011;2376;53.544;10.226;2022-08-21T02:35:40;4.37;;;3.83;;
4724;SDS011;2376;53.544;10.226;2022-08-21T02:38:09;4.83;;;4.40;;
4724;SDS011;2376;53.544;10.226;2022-08-21T02:40:38;5.10;;;4.70;;
4724;SDS011;2376;53.544;10.226;2022-08-21T02:43:06;7.03;;;5.20;;
4724;SDS011;2376;53.544;10.226;2022-08-21T02:45:34;5.13;;;4.70;;
4724;SDS011;2376;53.544;10.226;2022-08-21T02:48:04;5.30;;;4.90;;
4724;SDS011;2376;53.544;10.226;2022-08-21T02:50:32;5.73;;;5.33;;
4724;SDS011;2376;53.544;10.226;2022-08-21T02:53:00;4.77;;;4.40;;
4724;SDS011;2376;53.544;10.226;2022-08-21T02:55:29;8.47;;;5.87;;
4724;SDS011;2376;53.544;10.226;2022-08-21T02:57:57;9.13;;;6.83;;
4724;SDS011;2376;53.544;10.226;2022-08-21T03:00:25;6.13;;;5.40;;
4724;SDS011;2376;53.544;10.226;2022-08-21T03:02:54;5.43;;;5.03;;
4724;SDS011;2376;53.544;10.226;2022-08-21T03:05:23;4.73;;;4.30;;
4724;SDS011;2376;53.544;10.226;2022-08-21T03:07:50;4.83;;;4.57;;
4724;SDS011;2376;53.544;10.226;2022-08-21T03:10:18;7.57;;;4.77;;
4724;SDS011;2376;53.544;10.226;2022-08-21T03:12:45;5.57;;;5.07;;
4724;SDS011;2376;53.544;10.226;2022-08-21T03:15:13;5.00;;;4.57;;
4724;SDS011;2376;53.544;10.226;2022-08-21T03:17:42;6.10;;;4.63;;
4724;SDS011;2376;53.544;10.226;2022-08-21T03:20:10;4.50;;;4.10;;
4724;SDS011;2376;53.544;10.226;2022-08-21T03:22:38;6.53;;;4.67;;
4724;SDS011;2376;53.544;10.226;2022-08-21T03:25:06;5.73;;;5.20;;
4724;SDS011;2376;53.544;10.226;2022-08-21T03:27:33;5.07;;;4.57;;
4724;SDS011;2376;53.544;10.226;2022-08-21T03:30:02;6.87;;;6.27;;
4724;SDS011;2376;53.544;10.226;2022-08-21T03:32:30;4.87;;;4.50;;
4724;SDS011;2376;53.544;10.226;2022-08-21T03:34:57;6.83;;;4.53;;
4724;SDS011;2376;53.544;10.226;2022-08-21T03:37:25;4.33;;;3.93;;
4724;SDS011;2376;53.544;10.226;2022-08-21T03:39:54;4.10;;;3.77;;
4724;SDS011;2376;53.544;10.226;2022-08-21T03:42:20;3.97;;;3.77;;
4724;SDS011;2376;53.544;10.226;2022-08-21T03:44:47;4.70;;;3.87;;
4724;SDS011;2376;53.544;10.226;2022-08-21T03:47:14;6.90;;;4.20;;
4724;SDS011;2376;53.544;10.226;2022-08-21T03:49:41;3.90;;;3.60;;
4724;SDS011;2376;53.544;10.226;2022-08-21T03:52:07;5.27;;;4.60;;
4724;SDS011;2376;53.544;10.226;2022-08-21T03:54:34;8.97;;;4.77;;
4724;SDS011;2376;53.544;10.226;2022-08-21T03:57:02;4.67;;;4.37;;
4724;SDS011;2376;53.544;10.226;2022-08-21T03:59:29;4.30;;;3.90;;
4724;SDS011;2376;53.544;10.226;2022-08-21T04:01:56;4.87;;;4.43;;
4724;SDS011;2376;53.544;10.226;2022-08-21T04:04:26;4.13;;;3.73;;
4724;SDS011;2376;53.544;10.226;2022-08-21T04:06:54;3.90;;;3.70;;
4724;SDS011;2376;53.544;10.226;2022-08-21T04:09:21;6.47;;;4.87;;
4724;SDS011;2376;53.544;10.226;2022-08-21T04:11:48;4.60;;;4.27;;
4724;SDS011;2376;53.544;10.226;2022-08-21T04:14:17;4.67;;;4.27;;
4724;SDS011;2376;53.544;10.226;2022-08-21T04:16:44;9.20;;;4.67;;
4724;SDS011;2376;53.544;10.226;2022-08-21T04:19:14;7.70;;;4.10;;
4724;SDS011;2376;53.544;10.226;2022-08-21T04:21:41;4.73;;;4.33;;
4724;SDS011;2376;53.544;10.226;2022-08-21T04:24:08;4.73;;;4.37;;
4724;SDS011;2376;53.544;10.226;2022-08-21T04:26:37;7.20;;;5.87;;
4724;SDS011;2376;53.544;10.226;2022-08-21T04:29:04;5.93;;;4.33;;
4724;SDS011;2376;53.544;10.226;2022-08-21T04:31:33;4.37;;;4.00;;
4724;SDS011;2376;53.544;10.226;2022-08-21T04:34:01;5.37;;;3.83;;
4724;SDS011;2376;53.544;10.226;2022-08-21T04:36:29;5.10;;;4.40;;
4724;SDS011;2376;53.544;10.226;2022-08-21T04:38:56;4.93;;;4.40;;
4724;SDS011;2376;53.544;10.226;2022-08-21T04:41:23;4.90;;;4.30;;
4724;SDS011;2376;53.544;10.226;2022-08-21T04:43:51;4.17;;;3.90;;
4724;SDS011;2376;53.544;10.226;2022-08-21T04:46:20;4.60;;;4.20;;
4724;SDS011;2376;53.544;10.226;2022-08-21T04:48:49;4.40;;;4.10;;
4724;SDS011;2376;53.544;10.226;2022-08-21T04:51:17;4.33;;;4.03;;
4724;SDS011;2376;53.544;10.226;2022-08-21T04:53:49;5.57;;;3.63;;
4724;SDS011;2376;53.544;10.226;2022-08-21T04:56:19;7.60;;;4.37;;
4724;SDS011;2376;53.544;10.226;2022-08-21T04:58:53;5.10;;;4.07;;
4724;SDS011;2376;53.544;10.226;2022-08-21T05:01:23;6.10;;;3.90;;
4724;SDS011;2376;53.544;10.226;2022-08-21T05:03:55;9.30;;;4.27;;
4724;SDS011;2376;53.544;10.226;2022-08-21T05:06:24;6.17;;;4.07;;
4724;SDS011;2376;53.544;10.226;2022-08-21T05:08:53;4.40;;;4.10;;
4724;SDS011;2376;53.544;10.226;2022-08-21T05:11:21;6.00;;;4.87;;
4724;SDS011;2376;53.544;10.226;2022-08-21T05:13:48;6.43;;;4.33;;
4724;SDS011;2376;53.544;10.226;2022-08-21T05:16:15;4.03;;;3.63;;
4724;SDS011;2376;53.544;10.226;2022-08-21T05:18:42;4.77;;;4.33;;
4724;SDS011;2376;53.544;10.226;2022-08-21T05:21:11;5.63;;;3.97;;
4724;SDS011;2376;53.544;10.226;2022-08-21T05:23:39;7.07;;;4.40;;
4724;SDS011;2376;53.544;10.226;2022-08-21T05:26:06;4.10;;;3.80;;
4724;SDS011;2376;53.544;10.226;2022-08-21T05:28:33;7.07;;;3.87;;
4724;SDS011;2376;53.544;10.226;2022-08-21T05:31:00;3.80;;;3.60;;
4724;SDS011;2376;53.544;10.226;2022-08-21T05:33:28;9.27;;;4.37;;
4724;SDS011;2376;53.544;10.226;2022-08-21T05:35:55;4.50;;;4.20;;
4724;SDS011;2376;53.544;10.226;2022-08-21T05:38:24;4.33;;;3.97;;
4724;SDS011;2376;53.544;10.226;2022-08-21T05:40:52;4.30;;;3.90;;
4724;SDS011;2376;53.544;10.226;2022-08-21T05:43:20;4.23;;;3.83;;
4724;SDS011;2376;53.544;10.226;2022-08-21T05:45:47;3.30;;;3.10;;
4724;SDS011;2376;53.544;10.226;2022-08-21T05:48:16;3.93;;;3.63;;
4724;SDS011;2376;53.544;10.226;2022-08-21T05:50:44;4.00;;;3.70;;
4724;SDS011;2376;53.544;10.226;2022-08-21T05:53:14;4.77;;;4.37;;
4724;SDS011;2376;53.544;10.226;2022-08-21T05:55:43;7.23;;;4.03;;
4724;SDS011;2376;53.544;10.226;2022-08-21T05:58:11;4.40;;;4.00;;
4724;SDS011;2376;53.544;10.226;2022-08-21T06:00:38;4.60;;;3.20;;
4724;SDS011;2376;53.544;10.226;2022-08-21T06:03:10;4.83;;;4.33;;
4724;SDS011;2376;53.544;10.226;2022-08-21T06:05:37;5.83;;;4.33;;
4724;SDS011;2376;53.544;10.226;2022-08-21T06:08:04;6.30;;;3.27;;
4724;SDS011;2376;53.544;10.226;2022-08-21T06:10:31;4.70;;;3.80;;
4724;SDS011;2376;53.544;10.226;2022-08-21T06:12:59;4.90;;;4.03;;
4724;SDS011;2376;53.544;10.226;2022-08-21T06:15:26;4.53;;;4.00;;
4724;SDS011;2376;53.544;10.226;2022-08-21T06:17:54;5.20;;;3.73;;
4724;SDS011;2376;53.544;10.226;2022-08-21T06:20:21;4.23;;;3.93;;
4724;SDS011;2376;53.544;10.226;2022-08-21T06:22:48;4.63;;;4.13;;
4724;SDS011;2376;53.544;10.226;2022-08-21T06:25:16;10.00;;;4.30;;
4724;SDS011;2376;53.544;10.226;2022-08-21T06:27:43;8.60;;;3.97;;
4724;SDS011;2376;53.544;10.226;2022-08-21T06:30:11;6.03;;;4.57;;
4724;SDS011;2376;53.544;10.226;2022-08-21T06:32:39;4.00;;;3.70;;
4724;SDS011;2376;53.544;10.226;2022-08-21T06:35:06;7.43;;;4.27;;
4724;SDS011;2376;53.544;10.226;2022-08-21T06:37:36;3.57;;;3.27;;
4724;SDS011;2376;53.544;10.226;2022-08-21T06:40:04;7.13;;;4.47;;
4724;SDS011;2376;53.544;10.226;2022-08-21T06:42:34;6.27;;;3.57;;
4724;SDS011;2376;53.544;10.226;2022-08-21T06:45:01;6.27;;;4.30;;
4724;SDS011;2376;53.544;10.226;2022-08-21T06:47:30;4.60;;;4.20;;
4724;SDS011;2376;53.544;10.226;2022-08-21T06:49:56;3.63;;;3.27;;
4724;SDS011;2376;53.544;10.226;2022-08-21T06:52:23;5.20;;;3.90;;
4724;SDS011;2376;53.544;10.226;2022-08-21T06:54:50;3.70;;;3.00;;
4724;SDS011;2376;53.544;10.226;2022-08-21T06:57:19;4.93;;;3.10;;
4724;SDS011;2376;53.544;10.226;2022-08-21T06:59:46;3.83;;;3.20;;
4724;SDS011;2376;53.544;10.226;2022-08-21T07:02:14;5.97;;;3.80;;
4724;SDS011;2376;53.544;10.226;2022-08-21T07:04:42;3.60;;;3.30;;
4724;SDS011;2376;53.544;10.226;2022-08-21T07:07:08;4.60;;;3.00;;
4724;SDS011;2376;53.544;10.226;2022-08-21T07:09:35;3.80;;;3.30;;
4724;SDS011;2376;53.544;10.226;2022-08-21T07:12:02;2.77;;;2.60;;
4724;SDS011;2376;53.544;10.226;2022-08-21T07:14:30;7.70;;;3.13;;
4724;SDS011;2376;53.544;10.226;2022-08-21T07:17:00;3.07;;;2.73;;
4724;SDS011;2376;53.544;10.226;2022-08-21T07:19:27;2.40;;;2.13;;
4724;SDS011;2376;53.544;10.226;2022-08-21T07:21:56;4.57;;;2.70;;
4724;SDS011;2376;53.544;10.226;2022-08-21T07:24:26;2.37;;;2.23;;
4724;SDS011;2376;53.544;10.226;2022-08-21T07:26:55;4.83;;;2.03;;
4724;SDS011;2376;53.544;10.226;2022-08-21T07:29:22;4.90;;;2.47;;
4724;SDS011;2376;53.544;10.226;2022-08-21T07:31:49;2.50;;;2.30;;
4724;SDS011;2376;53.544;10.226;2022-08-21T07:34:15;2.50;;;2.27;;
4724;SDS011;2376;53.544;10.226;2022-08-21T07:36:42;3.43;;;1.87;;
4724;SDS011;2376;53.544;10.226;2022-08-21T07:39:11;2.50;;;2.27;;
4724;SDS011;2376;53.544;10.226;2022-08-21T07:41:38;3.60;;;2.10;;
4724;SDS011;2376;53.544;10.226;2022-08-21T07:44:05;2.20;;;2.03;;
4724;SDS011;2376;53.544;10.226;2022-08-21T07:46:33;2.77;;;1.77;;
4724;SDS011;2376;53.544;10.226;2022-08-21T07:49:00;1.60;;;1.50;;
4724;SDS011;2376;53.544;10.226;2022-08-21T07:51:27;2.03;;;1.83;;
4724;SDS011;2376;53.544;10.226;2022-08-21T07:53:55;2.23;;;1.77;;
4724;SDS011;2376;53.544;10.226;2022-08-21T07:56:25;1.90;;;1.70;;
4724;SDS011;2376;53.544;10.226;2022-08-21T07:58:53;2.43;;;1.80;;
4724;SDS011;2376;53.544;10.226;2022-08-21T08:01:22;3.13;;;1.90;;
4724;SDS011;2376;53.544;10.226;2022-08-21T08:03:49;6.70;;;2.20;;
4724;SDS011;2376;53.544;10.226;2022-08-21T08:06:17;2.70;;;2.10;;
4724;SDS011;2376;53.544;10.226;2022-08-21T08:08:44;2.83;;;1.97;;
4724;SDS011;2376;53.544;10.226;2022-08-21T08:11:11;6.20;;;2.00;;
4724;SDS011;2376;53.544;10.226;2022-08-21T08:13:42;2.03;;;1.93;;
4724;SDS011;2376;53.544;10.226;2022-08-21T08:16:10;4.83;;;2.13;;
4724;SDS011;2376;53.544;10.226;2022-08-21T08:18:37;2.50;;;2.30;;
4724;SDS011;2376;53.544;10.226;2022-08-21T08:21:04;4.23;;;1.90;;
4724;SDS011;2376;53.544;10.226;2022-08-21T08:23:32;3.57;;;2.20;;
4724;SDS011;2376;53.544;10.226;2022-08-21T08:26:00;3.23;;;1.80;;
4724;SDS011;2376;53.544;10.226;2022-08-21T08:28:28;5.53;;;2.63;;
4724;SDS011;2376;53.544;10.226;2022-08-21T08:30:58;3.00;;;1.90;;
4724;SDS011;2376;53.544;10.226;2022-08-21T08:33:25;4.37;;;2.07;;
4724;SDS011;2376;53.544;10.226;2022-08-21T08:35:53;3.00;;;2.33;;
4724;SDS011;2376;53.544;10.226;2022-08-21T08:38:21;2.47;;;1.80;;
4724;SDS011;2376;53.544;10.226;2022-08-21T08:40:52;3.80;;;2.03;;
4724;SDS011;2376;53.544;10.226;2022-08-21T08:43:24;2.87;;;2.00;;
4724;SDS011;2376;53.544;10.226;2022-08-21T08:45:53;4.17;;;1.70;;
4724;SDS011;2376;53.544;10.226;2022-08-21T08:48:30;1.83;;;1.73;;
4724;SDS011;2376;53.544;10.226;2022-08-21T08:51:15;4.60;;;2.07;;
4724;SDS011;2376;53.544;10.226;2022-08-21T08:53:49;1.80;;;1.70;;
4724;SDS011;2376;53.544;10.226;2022-08-21T08:56:20;6.47;;;2.63;;
4724;SDS011;2376;53.544;10.226;2022-08-21T08:59:00;3.63;;;1.77;;
4724;SDS011;2376;53.544;10.226;2022-08-21T09:01:33;2.83;;;1.87;;
4724;SDS011;2376;53.544;10.226;2022-08-21T09:04:02;1.83;;;1.73;;
4724;SDS011;2376;53.544;10.226;2022-08-21T09:06:37;5.63;;;2.43;;
4724;SDS011;2376;53.544;10.226;2022-08-21T09:09:17;3.13;;;1.93;;
4724;SDS011;2376;53.544;10.226;2022-08-21T09:11:57;2.70;;;2.27;;
4724;SDS011;2376;53.544;10.226;2022-08-21T09:14:33;3.63;;;1.90;;
4724;SDS011;2376;53.544;10.226;2022-08-21T09:17:12;4.20;;;2.00;;
4724;SDS011;2376;53.544;10.226;2022-08-21T09:19:54;2.60;;;1.93;;
4724;SDS011;2376;53.544;10.226;2022-08-21T09:22:32;3.10;;;2.27;;
4724;SDS011;2376;53.544;10.226;2022-08-21T09:25:11;5.33;;;2.23;;
4724;SDS011;2376;53.544;10.226;2022-08-21T09:27:43;3.37;;;1.80;;
4724;SDS011;2376;53.544;10.226;2022-08-21T09:30:10;4.17;;;1.90;;
4724;SDS011;2376;53.544;10.226;2022-08-21T09:32:38;3.17;;;2.30;;
4724;SDS011;2376;53.544;10.226;2022-08-21T09:35:09;5.90;;;2.50;;
4724;SDS011;2376;53.544;10.226;2022-08-21T09:37:51;4.47;;;1.93;;
4724;SDS011;2376;53.544;10.226;2022-08-21T09:40:25;1.80;;;1.70;;
4724;SDS011;2376;53.544;10.226;2022-08-21T09:42:58;3.77;;;2.90;;
4724;SDS011;2376;53.544;10.226;2022-08-21T09:45:27;5.23;;;1.93;;
4724;SDS011;2376;53.544;10.226;2022-08-21T09:47:55;3.93;;;1.97;;
4724;SDS011;2376;53.544;10.226;2022-08-21T09:50:39;2.50;;;2.00;;
4724;SDS011;2376;53.544;10.226;2022-08-21T09:53:17;7.43;;;2.47;;
4724;SDS011;2376;53.544;10.226;2022-08-21T09:55:47;4.30;;;1.80;;
4724;SDS011;2376;53.544;10.226;2022-08-21T09:58:36;5.50;;;2.60;;
4724;SDS011;2376;53.544;10.226;2022-08-21T10:01:05;4.27;;;2.20;;
4724;SDS011;2376;53.544;10.226;2022-08-21T10:03:34;4.57;;;2.07;;
4724;SDS011;2376;53.544;10.226;2022-08-21T10:06:03;2.80;;;1.73;;
4724;SDS011;2376;53.544;10.226;2022-08-21T10:08:34;3.40;;;1.97;;
4724;SDS011;2376;53.544;10.226;2022-08-21T10:11:03;3.80;;;2.00;;
4724;SDS011;2376;53.544;10.226;2022-08-21T10:13:40;2.70;;;1.90;;
4724;SDS011;2376;53.544;10.226;2022-08-21T10:16:16;7.77;;;2.50;;
4724;SDS011;2376;53.544;10.226;2022-08-21T10:18:56;14.33;;;2.50;;
4724;SDS011;2376;53.544;10.226;2022-08-21T10:21:33;3.83;;;1.93;;
4724;SDS011;2376;53.544;10.226;2022-08-21T10:24:08;4.70;;;2.13;;
4724;SDS011;2376;53.544;10.226;2022-08-21T10:26:45;4.50;;;2.10;;
4724;SDS011;2376;53.544;10.226;2022-08-21T10:29:23;3.67;;;1.97;;
4724;SDS011;2376;53.544;10.226;2022-08-21T10:32:02;8.50;;;2.57;;
4724;SDS011;2376;53.544;10.226;2022-08-21T10:34:41;6.00;;;2.23;;
4724;SDS011;2376;53.544;10.226;2022-08-21T10:37:22;4.00;;;2.60;;
4724;SDS011;2376;53.544;10.226;2022-08-21T10:40:06;2.63;;;1.90;;
4724;SDS011;2376;53.544;10.226;2022-08-21T10:42:42;5.50;;;2.90;;
4724;SDS011;2376;53.544;10.226;2022-08-21T10:45:25;12.43;;;2.60;;
4724;SDS011;2376;53.544;10.226;2022-08-21T10:48:02;7.73;;;2.50;;
4724;SDS011;2376;53.544;10.226;2022-08-21T10:50:34;4.40;;;2.73;;
4724;SDS011;2376;53.544;10.226;2022-08-21T10:53:26;5.70;;;2.37;;
4724;SDS011;2376;53.544;10.226;2022-08-21T10:56:05;3.53;;;2.80;;
4724;SDS011;2376;53.544;10.226;2022-08-21T10:58:40;7.27;;;2.10;;
4724;SDS011;2376;53.544;10.226;2022-08-21T11:01:22;5.80;;;2.47;;
4724;SDS011;2376;53.544;10.226;2022-08-21T11:04:00;4.67;;;2.23;;
4724;SDS011;2376;53.544;10.226;2022-08-21T11:06:35;5.30;;;2.10;;
4724;SDS011;2376;53.544;10.226;2022-08-21T11:09:12;4.43;;;2.67;;
4724;SDS011;2376;53.544;10.226;2022-08-21T11:11:44;3.07;;;2.57;;
4724;SDS011;2376;53.544;10.226;2022-08-21T11:14:17;5.20;;;2.37;;
4724;SDS011;2376;53.544;10.226;2022-08-21T11:16:53;4.17;;;2.33;;
4724;SDS011;2376;53.544;10.226;2022-08-21T11:19:27;2.47;;;1.63;;
4724;SDS011;2376;53.544;10.226;2022-08-21T11:21:58;9.50;;;2.37;;
4724;SDS011;2376;53.544;10.226;2022-08-21T11:24:35;2.53;;;1.70;;
4724;SDS011;2376;53.544;10.226;2022-08-21T11:27:10;6.50;;;2.03;;
4724;SDS011;2376;53.544;10.226;2022-08-21T11:29:48;2.53;;;2.10;;
4724;SDS011;2376;53.544;10.226;2022-08-21T11:32:25;3.80;;;2.40;;
4724;SDS011;2376;53.544;10.226;2022-08-21T11:35:00;2.13;;;1.80;;
4724;SDS011;2376;53.544;10.226;2022-08-21T11:37:40;4.30;;;2.43;;
4724;SDS011;2376;53.544;10.226;2022-08-21T11:40:26;2.13;;;1.63;;
4724;SDS011;2376;53.544;10.226;2022-08-21T11:43:07;2.67;;;1.90;;
4724;SDS011;2376;53.544;10.226;2022-08-21T11:45:39;3.67;;;1.70;;
4724;SDS011;2376;53.544;10.226;2022-08-21T11:48:14;1.97;;;1.83;;
4724;SDS011;2376;53.544;10.226;2022-08-21T11:50:50;2.37;;;1.90;;
4724;SDS011;2376;53.544;10.226;2022-08-21T11:53:20;3.53;;;2.07;;
4724;SDS011;2376;53.544;10.226;2022-08-21T11:55:56;4.57;;;2.67;;
4724;SDS011;2376;53.544;10.226;2022-08-21T11:58:31;2.23;;;1.97;;
4724;SDS011;2376;53.544;10.226;2022-08-21T12:01:03;3.00;;;1.80;;
4724;SDS011;2376;53.544;10.226;2022-08-21T12:03:34;3.30;;;1.80;;
4724;SDS011;2376;53.544;10.226;2022-08-21T12:06:05;5.70;;;1.83;;
4724;SDS011;2376;53.544;10.226;2022-08-21T12:08:34;3.63;;;1.60;;
4724;SDS011;2376;53.544;10.226;2022-08-21T12:11:06;2.90;;;2.17;;
4724;SDS011;2376;53.544;10.226;2022-08-21T12:13:35;3.83;;;1.93;;
4724;SDS011;2376;53.544;10.226;2022-08-21T12:16:05;3.37;;;2.33;;
4724;SDS011;2376;53.544;10.226;2022-08-21T12:18:33;2.57;;;2.10;;
4724;SDS011;2376;53.544;10.226;2022-08-21T12:21:05;3.50;;;1.83;;
4724;SDS011;2376;53.544;10.226;2022-08-21T12:23:47;3.00;;;2.37;;
4724;SDS011;2376;53.544;10.226;2022-08-21T12:26:22;3.10;;;2.07;;
4724;SDS011;2376;53.544;10.226;2022-08-21T12:29:02;2.03;;;1.80;;
4724;SDS011;2376;53.544;10.226;2022-08-21T12:31:46;2.27;;;1.93;;
4724;SDS011;2376;53.544;10.226;2022-08-21T12:34:18;2.10;;;2.00;;
4724;SDS011;2376;53.544;10.226;2022-08-21T12:36:52;2.80;;;1.60;;
4724;SDS011;2376;53.544;10.226;2022-08-21T12:39:25;3.17;;;1.93;;
4724;SDS011;2376;53.544;10.226;2022-08-21T12:41:57;3.63;;;1.57;;
4724;SDS011;2376;53.544;10.226;2022-08-21T12:44:34;2.80;;;1.93;;
4724;SDS011;2376;53.544;10.226;2022-08-21T12:47:13;2.70;;;1.90;;
4724;SDS011;2376;53.544;10.226;2022-08-21T12:49:45;2.50;;;1.60;;
4724;SDS011;2376;53.544;10.226;2022-08-21T12:52:22;2.27;;;2.07;;
4724;SDS011;2376;53.544;10.226;2022-08-21T12:54:54;6.60;;;2.03;;
4724;SDS011;2376;53.544;10.226;2022-08-21T12:57:25;1.67;;;1.57;;
4724;SDS011;2376;53.544;10.226;2022-08-21T12:59:56;2.10;;;1.53;;
4724;SDS011;2376;53.544;10.226;2022-08-21T13:02:27;1.60;;;1.50;;
4724;SDS011;2376;53.544;10.226;2022-08-21T13:05:02;2.77;;;2.07;;
4724;SDS011;2376;53.544;10.226;2022-08-21T13:07:31;2.40;;;1.50;;
4724;SDS011;2376;53.544;10.226;2022-08-21T13:10:02;3.63;;;2.00;;
4724;SDS011;2376;53.544;10.226;2022-08-21T13:12:32;1.87;;;1.60;;
4724;SDS011;2376;53.544;10.226;2022-08-21T13:15:02;2.20;;;1.70;;
4724;SDS011;2376;53.544;10.226;2022-08-21T13:17:32;2.60;;;1.50;;
4724;SDS011;2376;53.544;10.226;2022-08-21T13:20:04;5.87;;;1.80;;
4724;SDS011;2376;53.544;10.226;2022-08-21T13:22:39;1.70;;;1.43;;
4724;SDS011;2376;53.544;10.226;2022-08-21T13:25:09;2.00;;;1.40;;
4724;SDS011;2376;53.544;10.226;2022-08-21T13:27:40;3.53;;;1.57;;
4724;SDS011;2376;53.544;10.226;2022-08-21T13:30:09;1.90;;;1.60;;
4724;SDS011;2376;53.544;10.226;2022-08-21T13:32:40;2.43;;;1.40;;
4724;SDS011;2376;53.544;10.226;2022-08-21T13:35:13;3.43;;;1.67;;
4724;SDS011;2376;53.544;10.226;2022-08-21T13:37:44;4.60;;;2.00;;
4724;SDS011;2376;53.544;10.226;2022-08-21T13:40:14;1.93;;;1.47;;
4724;SDS011;2376;53.544;10.226;2022-08-21T13:42:46;3.93;;;2.00;;
4724;SDS011;2376;53.544;10.226;2022-08-21T13:45:16;1.80;;;1.70;;
4724;SDS011;2376;53.544;10.226;2022-08-21T13:47:47;1.93;;;1.73;;
4724;SDS011;2376;53.544;10.226;2022-08-21T13:50:15;2.40;;;2.17;;
4724;SDS011;2376;53.544;10.226;2022-08-21T13:52:53;5.70;;;1.83;;
4724;SDS011;2376;53.544;10.226;2022-08-21T13:55:23;2.23;;;1.77;;
4724;SDS011;2376;53.544;10.226;2022-08-21T13:57:59;3.07;;;1.40;;
4724;SDS011;2376;53.544;10.226;2022-08-21T14:00:27;3.57;;;2.10;;
4724;SDS011;2376;53.544;10.226;2022-08-21T14:03:01;3.63;;;1.73;;
4724;SDS011;2376;53.544;10.226;2022-08-21T14:05:31;2.83;;;1.60;;
4724;SDS011;2376;53.544;10.226;2022-08-21T14:08:01;2.20;;;1.47;;
4724;SDS011;2376;53.544;10.226;2022-08-21T14:10:30;2.20;;;1.63;;
4724;SDS011;2376;53.544;10.226;2022-08-21T14:12:58;3.63;;;1.50;;
4724;SDS011;2376;53.544;10.226;2022-08-21T14:15:29;2.87;;;1.77;;
4724;SDS011;2376;53.544;10.226;2022-08-21T14:18:06;1.37;;;1.20;;
4724;SDS011;2376;53.544;10.226;2022-08-21T14:20:35;1.70;;;1.60;;
4724;SDS011;2376;53.544;10.226;2022-08-21T14:23:03;2.27;;;1.93;;
4724;SDS011;2376;53.544;10.226;2022-08-21T14:25:31;2.53;;;1.90;;
4724;SDS011;2376;53.544;10.226;2022-08-21T14:28:15;2.10;;;1.87;;
4724;SDS011;2376;53.544;10.226;2022-08-21T14:30:48;2.13;;;1.37;;
4724;SDS011;2376;53.544;10.226;2022-08-21T14:33:18;2.50;;;1.60;;
4724;SDS011;2376;53.544;10.226;2022-08-21T14:35:50;1.73;;;1.63;;
4724;SDS011;2376;53.544;10.226;2022-08-21T14:38:18;1.73;;;1.30;;
4724;SDS011;2376;53.544;10.226;2022-08-21T14:40:47;1.80;;;1.40;;
4724;SDS011;2376;53.544;10.226;2022-08-21T14:43:18;1.87;;;1.43;;
4724;SDS011;2376;53.544;10.226;2022-08-21T14:45:45;1.60;;;1.50;;
4724;SDS011;2376;53.544;10.226;2022-08-21T14:48:13;1.80;;;1.50;;
4724;SDS011;2376;53.544;10.226;2022-08-21T14:50:40;2.47;;;1.10;;
4724;SDS011;2376;53.544;10.226;2022-08-21T14:53:09;2.27;;;1.50;;
4724;SDS011;2376;53.544;10.226;2022-08-21T14:55:37;5.57;;;1.70;;
4724;SDS011;2376;53.544;10.226;2022-08-21T14:58:24;2.47;;;1.70;;
4724;SDS011;2376;53.544;10.226;2022-08-21T15:00:52;2.60;;;1.50;;
4724;SDS011;2376;53.544;10.226;2022-08-21T15:03:23;2.60;;;1.70;;
4724;SDS011;2376;53.544;10.226;2022-08-21T15:05:50;1.43;;;1.33;;
4724;SDS011;2376;53.544;10.226;2022-08-21T15:08:17;1.60;;;1.50;;
4724;SDS011;2376;53.544;10.226;2022-08-21T15:10:45;2.23;;;1.30;;
4724;SDS011;2376;53.544;10.226;2022-08-21T15:13:13;1.50;;;1.40;;
4724;SDS011;2376;53.544;10.226;2022-08-21T15:15:43;2.40;;;1.40;;
4724;SDS011;2376;53.544;10.226;2022-08-21T15:18:12;1.77;;;1.30;;